Time;durP1;ratioP1;P1;durP2;ratioP2;P2;SDS_P1;SDS_P2;PMS_P1;PMS_P2;Temp;Humidity;BMP_temperature;BMP_pressure;BME280_temperature;BME280_humidity;BME280_pressure;Samples;Min_cycle;Max_cycle;Signal;HPM_P1;HPM_P2
2023/09/06 00:00:16;;;;;;;1.80;1.58;;;;;;;;;;4994341;28;20034;-79
2023/09/06 00:02:42;;;;;;;2.90;1.95;;;;;;;;;;4992734;28;20026;-79
2023/09/06 00:05:07;;;;;;;1.70;1.60;;;;;;;;;;4993150;28;20371;-79
2023/09/06 00:07:33;;;;;;;4.22;1.95;;;;;;;;;;4993068;28;20026;-79
2023/09/06 00:09:58;;;;;;;1.92;1.77;;;;;;;;;;4993242;28;20045;-79
2023/09/06 00:12:23;;;;;;;2.78;1.75;;;;;;;;;;4992737;28;20041;-79
2023/09/06 00:14:49;;;;;;;2.78;1.80;;;;;;;;;;4992909;28;20041;-79
2023/09/06 00:17:14;;;;;;;2.22;1.60;;;;;;;;;;4992676;28;20366;-79
2023/09/06 00:19:39;;;;;;;2.42;1.85;;;;;;;;;;4992626;28;20093;-79
2023/09/06 00:22:05;;;;;;;1.70;1.60;;;;;;;;;;4993183;28;20488;-79
2023/09/06 00:24:31;;;;;;;2.15;1.60;;;;;;;;;;4993586;28;20047;-79
2023/09/06 00:26:58;;;;;;;1.70;1.60;;;;;;;;;;4992676;28;20035;-79
2023/09/06 00:29:24;;;;;;;1.63;1.52;;;;;;;;;;4992864;28;20031;-79
2023/09/06 00:31:49;;;;;;;2.75;2.00;;;;;;;;;;4994053;28;20022;-79
2023/09/06 00:34:15;;;;;;;3.00;2.03;;;;;;;;;;4992575;28;20034;-79
2023/09/06 00:36:40;;;;;;;4.85;2.00;;;;;;;;;;4992466;28;20034;-79
2023/09/06 00:39:06;;;;;;;2.00;1.80;;;;;;;;;;4993973;28;20084;-79
2023/09/06 00:41:31;;;;;;;2.00;1.60;;;;;;;;;;4993778;28;20474;-79
2023/09/06 00:43:57;;;;;;;3.22;1.77;;;;;;;;;;4992682;28;20045;-79
2023/09/06 00:46:23;;;;;;;1.38;1.27;;;;;;;;;;4991952;28;20363;-79
2023/09/06 00:48:51;;;;;;;1.77;1.67;;;;;;;;;;4992350;28;20544;-79
2023/09/06 00:51:18;;;;;;;2.67;1.70;;;;;;;;;;4992572;28;20536;-79
2023/09/06 00:53:43;;;;;;;5.28;1.65;;;;;;;;;;4993696;28;20030;-79
2023/09/06 00:56:09;;;;;;;1.83;1.60;;;;;;;;;;4992796;28;20101;-79
2023/09/06 00:58:35;;;;;;;2.10;1.67;;;;;;;;;;4992398;28;20030;-79
2023/09/06 01:01:04;;;;;;;2.15;1.60;;;;;;;;;;4992283;28;20026;-79
2023/09/06 01:03:29;;;;;;;2.45;1.70;;;;;;;;;;4993387;28;20026;-79
2023/09/06 01:06:03;;;;;;;2.15;1.73;;;;;;;;;;4993452;28;20023;-79
2023/09/06 01:08:36;;;;;;;2.03;1.77;;;;;;;;;;4992136;28;20022;-79
2023/09/06 01:11:20;;;;;;;2.13;1.70;;;;;;;;;;4997703;28;20084;-79
2023/09/06 01:13:48;;;;;;;2.70;1.48;;;;;;;;;;4997626;28;20464;-79
2023/09/06 01:16:20;;;;;;;1.63;1.52;;;;;;;;;;4996073;28;20114;-79
2023/09/06 01:18:45;;;;;;;1.88;1.67;;;;;;;;;;4996134;28;20488;-79
2023/09/06 01:21:14;;;;;;;2.03;1.42;;;;;;;;;;4995956;28;20034;-79
2023/09/06 01:23:40;;;;;;;2.10;1.60;;;;;;;;;;4979335;28;20023;-79
2023/09/06 01:26:06;;;;;;;2.00;1.80;;;;;;;;;;4995621;28;20055;-79
2023/09/06 01:28:32;;;;;;;1.63;1.52;;;;;;;;;;4996859;28;20033;-79
2023/09/06 01:31:01;;;;;;;5.03;1.63;;;;;;;;;;4996992;28;20038;-79
2023/09/06 01:33:30;;;;;;;1.80;1.65;;;;;;;;;;4996746;28;20040;-79
2023/09/06 01:35:56;;;;;;;1.85;1.63;;;;;;;;;;4995968;28;20076;-79
2023/09/06 01:38:22;;;;;;;3.58;1.80;;;;;;;;;;4995487;28;20058;-80
2023/09/06 01:40:48;;;;;;;2.33;1.60;;;;;;;;;;4996946;28;20132;-80
2023/09/06 01:43:13;;;;;;;2.90;1.83;;;;;;;;;;4996537;28;20108;-79
2023/09/06 01:45:44;;;;;;;1.70;1.60;;;;;;;;;;4995864;28;20026;-79
2023/09/06 01:48:09;;;;;;;2.53;1.73;;;;;;;;;;4995303;28;20048;-79
2023/09/06 01:50:35;;;;;;;2.92;1.67;;;;;;;;;;4995403;28;20486;-79
2023/09/06 01:53:00;;;;;;;2.72;1.77;;;;;;;;;;4996352;28;20026;-79
2023/09/06 01:55:26;;;;;;;3.10;1.67;;;;;;;;;;4996530;28;20377;-79
2023/09/06 01:57:51;;;;;;;1.80;1.70;;;;;;;;;;4997202;28;20031;-79
2023/09/06 02:00:23;;;;;;;1.98;1.63;;;;;;;;;;4994999;28;20077;-79
2023/09/06 02:02:49;;;;;;;3.45;1.67;;;;;;;;;;4996186;28;20034;-79
2023/09/06 02:05:15;;;;;;;2.20;1.80;;;;;;;;;;4996173;28;20026;-79
2023/09/06 02:07:40;;;;;;;3.25;1.80;;;;;;;;;;4994794;28;20038;-79
2023/09/06 02:10:09;;;;;;;1.98;1.70;;;;;;;;;;4994963;28;20538;-79
2023/09/06 02:12:35;;;;;;;3.38;1.70;;;;;;;;;;4979127;28;20030;-79
2023/09/06 02:15:00;;;;;;;2.65;1.90;;;;;;;;;;4996401;28;20355;-79
2023/09/06 02:17:26;;;;;;;2.50;1.88;;;;;;;;;;4994702;28;20109;-79
2023/09/06 02:19:52;;;;;;;1.83;1.73;;;;;;;;;;4994535;28;20512;-79
2023/09/06 02:22:18;;;;;;;1.70;1.60;;;;;;;;;;4995646;28;20034;-79
2023/09/06 02:24:43;;;;;;;2.08;1.67;;;;;;;;;;4994690;28;20447;-79
2023/09/06 02:27:12;;;;;;;1.85;1.65;;;;;;;;;;4996180;28;20034;-79
2023/09/06 02:29:38;;;;;;;2.30;1.70;;;;;;;;;;4994687;28;20034;-79
2023/09/06 02:32:03;;;;;;;3.40;1.75;;;;;;;;;;4994799;28;20060;-79
2023/09/06 02:34:29;;;;;;;3.03;1.50;;;;;;;;;;4995786;28;20429;-79
2023/09/06 02:36:55;;;;;;;4.03;1.70;;;;;;;;;;4995785;28;20062;-80
2023/09/06 02:39:20;;;;;;;1.65;1.55;;;;;;;;;;4995775;28;20040;-79
2023/09/06 02:41:46;;;;;;;2.53;1.80;;;;;;;;;;4995913;28;20117;-79
2023/09/06 02:44:12;;;;;;;2.47;1.90;;;;;;;;;;4978030;28;20037;-79
2023/09/06 02:46:38;;;;;;;1.65;1.50;;;;;;;;;;4995898;28;20041;-79
2023/09/06 02:49:11;;;;;;;3.00;1.50;;;;;;;;;;4995605;28;20034;-79
2023/09/06 02:51:43;;;;;;;2.95;1.60;;;;;;;;;;4994366;28;20084;-79
2023/09/06 02:54:09;;;;;;;2.05;1.80;;;;;;;;;;4995670;28;20037;-79
2023/09/06 02:56:37;;;;;;;2.53;1.88;;;;;;;;;;4995124;28;20043;-79
2023/09/06 02:59:03;;;;;;;1.90;1.73;;;;;;;;;;4994077;28;20057;-79
2023/09/06 03:01:30;;;;;;;2.42;1.70;;;;;;;;;;4977609;28;20030;-79
2023/09/06 03:03:57;;;;;;;2.47;1.50;;;;;;;;;;4994044;28;20378;-79
2023/09/06 03:06:32;;;;;;;1.88;1.77;;;;;;;;;;4993947;28;20035;-79
2023/09/06 03:08:59;;;;;;;1.98;1.80;;;;;;;;;;4994409;28;20465;-79
2023/09/06 03:11:25;;;;;;;1.60;1.50;;;;;;;;;;4994863;28;20034;-78
2023/09/06 03:13:55;;;;;;;1.70;1.60;;;;;;;;;;4977473;28;20022;-78
2023/09/06 03:16:22;;;;;;;2.00;1.70;;;;;;;;;;4994810;28;20033;-79
2023/09/06 03:18:49;;;;;;;2.33;1.73;;;;;;;;;;4995262;28;20084;-79
2023/09/06 03:21:16;;;;;;;2.83;1.77;;;;;;;;;;4994189;28;20466;-79
2023/09/06 03:23:44;;;;;;;1.90;1.70;;;;;;;;;;4994847;28;20037;-79
2023/09/06 03:26:10;;;;;;;4.03;1.60;;;;;;;;;;4994509;28;20070;-79
2023/09/06 03:28:40;;;;;;;1.60;1.50;;;;;;;;;;4993534;28;20054;-79
2023/09/06 03:31:08;;;;;;;2.20;1.88;;;;;;;;;;4993692;28;20026;-79
2023/09/06 03:33:35;;;;;;;2.25;2.05;;;;;;;;;;4977227;28;20029;-79
2023/09/06 03:36:07;;;;;;;1.50;1.40;;;;;;;;;;4993110;28;20097;-78
2023/09/06 03:38:33;;;;;;;2.90;1.70;;;;;;;;;;4993155;28;20509;-78
2023/09/06 03:41:02;;;;;;;1.75;1.60;;;;;;;;;;4994237;28;20070;-79
2023/09/06 03:43:30;;;;;;;6.45;1.60;;;;;;;;;;4993043;28;20052;-79
2023/09/06 03:45:58;;;;;;;2.88;1.90;;;;;;;;;;4977260;28;20034;-79
2023/09/06 03:48:25;;;;;;;2.63;1.88;;;;;;;;;;4993012;28;20077;-79
2023/09/06 03:50:57;;;;;;;3.08;1.80;;;;;;;;;;4993270;28;20030;-79
2023/09/06 03:53:26;;;;;;;2.35;1.65;;;;;;;;;;4993054;28;20049;-79
2023/09/06 03:55:54;;;;;;;2.47;1.80;;;;;;;;;;4993149;28;20506;-79
2023/09/06 03:58:19;;;;;;;2.60;1.83;;;;;;;;;;4976965;28;20030;-79
2023/09/06 04:00:47;;;;;;;3.38;1.60;;;;;;;;;;4994142;28;20130;-79
2023/09/06 04:03:14;;;;;;;3.28;1.83;;;;;;;;;;4994160;28;20478;-78
2023/09/06 04:05:40;;;;;;;1.70;1.50;;;;;;;;;;4976319;28;20028;-78
2023/09/06 04:08:09;;;;;;;2.72;1.73;;;;;;;;;;4994118;28;20393;-78
2023/09/06 04:10:38;;;;;;;2.38;1.65;;;;;;;;;;4994160;28;20026;-78
2023/09/06 04:13:05;;;;;;;5.80;2.08;;;;;;;;;;4992835;28;20034;-79
2023/09/06 04:15:34;;;;;;;3.95;1.77;;;;;;;;;;4976101;28;20026;-79
2023/09/06 04:18:01;;;;;;;2.22;1.65;;;;;;;;;;4992433;28;20028;-79
2023/09/06 04:20:30;;;;;;;2.42;1.90;;;;;;;;;;4992452;28;20450;-79
2023/09/06 04:22:56;;;;;;;2.08;1.48;;;;;;;;;;4994039;28;20026;-79
2023/09/06 04:25:22;;;;;;;2.67;1.92;;;;;;;;;;4975998;28;20469;-79
2023/09/06 04:27:48;;;;;;;4.13;1.73;;;;;;;;;;4992506;28;20101;-77
2023/09/06 04:30:15;;;;;;;4.50;1.80;;;;;;;;;;4992471;28;20030;-78
2023/09/06 04:32:42;;;;;;;4.45;2.20;;;;;;;;;;4993863;28;20050;-80
2023/09/06 04:35:07;;;;;;;6.82;2.80;;;;;;;;;;4992301;28;20038;-79
2023/09/06 04:37:35;;;;;;;7.55;3.78;;;;;;;;;;4993817;28;20088;-80
2023/09/06 04:40:00;;;;;;;6.85;3.85;;;;;;;;;;4992383;28;20046;-80
2023/09/06 04:42:26;;;;;;;5.72;3.47;;;;;;;;;;4992388;28;20030;-80
2023/09/06 04:44:51;;;;;;;7.38;3.97;;;;;;;;;;4994942;28;20393;-79
2023/09/06 04:47:17;;;;;;;9.98;4.28;;;;;;;;;;4997594;28;20038;-79
2023/09/06 04:49:45;;;;;;;10.10;3.97;;;;;;;;;;4997698;28;20037;-79
2023/09/06 04:52:11;;;;;;;8.55;3.80;;;;;;;;;;4996432;28;20443;-79
2023/09/06 04:54:36;;;;;;;7.55;3.70;;;;;;;;;;4996243;28;20035;-80
2023/09/06 04:57:02;;;;;;;7.45;3.28;;;;;;;;;;4996196;28;20450;-80
2023/09/06 04:59:27;;;;;;;5.32;3.17;;;;;;;;;;4996219;28;20030;-80
2023/09/06 05:01:53;;;;;;;4.43;2.78;;;;;;;;;;4979733;28;20053;-80
2023/09/06 05:04:19;;;;;;;5.22;2.83;;;;;;;;;;4995779;28;20030;-79
2023/09/06 05:06:44;;;;;;;4.70;2.53;;;;;;;;;;4996767;28;20038;-77
2023/09/06 05:09:10;;;;;;;3.28;2.63;;;;;;;;;;4996228;28;20458;-80
2023/09/06 05:11:36;;;;;;;6.10;2.67;;;;;;;;;;4995778;28;20116;-80
2023/09/06 05:14:01;;;;;;;5.40;2.65;;;;;;;;;;4998139;28;20466;-80
2023/09/06 05:16:26;;;;;;;3.15;2.38;;;;;;;;;;4980571;28;20046;-81
2023/09/06 05:18:52;;;;;;;3.90;2.22;;;;;;;;;;4998355;28;20030;-80
2023/09/06 05:21:18;;;;;;;3.25;2.38;;;;;;;;;;4997614;28;20500;-80
2023/09/06 05:23:44;;;;;;;4.70;2.33;;;;;;;;;;4997000;28;20030;-80
2023/09/06 05:26:10;;;;;;;5.15;2.20;;;;;;;;;;4996774;28;20051;-81
2023/09/06 05:28:35;;;;;;;4.68;2.25;;;;;;;;;;4997408;28;20033;-79
2023/09/06 05:31:01;;;;;;;4.88;2.60;;;;;;;;;;4998489;28;20038;-81
2023/09/06 05:33:27;;;;;;;7.35;2.40;;;;;;;;;;4998388;28;20038;-81
2023/09/06 05:35:54;;;;;;;7.00;2.40;;;;;;;;;;4997996;28;20085;-81
2023/09/06 05:38:20;;;;;;;4.55;2.70;;;;;;;;;;4997916;28;20037;-81
2023/09/06 05:40:47;;;;;;;5.00;2.38;;;;;;;;;;4998091;28;20042;-81
2023/09/06 05:43:13;;;;;;;3.28;2.25;;;;;;;;;;4979612;28;20398;-81
2023/09/06 05:45:39;;;;;;;3.92;2.05;;;;;;;;;;4996187;28;20030;-79
2023/09/06 05:48:05;;;;;;;4.05;2.30;;;;;;;;;;4980577;28;20038;-79
2023/09/06 05:50:31;;;;;;;2.42;2.15;;;;;;;;;;4980399;28;20032;-80
2023/09/06 05:52:56;;;;;;;3.72;2.28;;;;;;;;;;4981426;28;20030;-79
2023/09/06 05:55:22;;;;;;;3.00;2.40;;;;;;;;;;4978352;28;20031;-80
2023/09/06 05:57:47;;;;;;;3.60;2.33;;;;;;;;;;4979007;28;20038;-79
2023/09/06 06:00:15;;;;;;;6.20;2.25;;;;;;;;;;4995781;28;20030;-79
2023/09/06 06:02:42;;;;;;;5.22;2.08;;;;;;;;;;4996928;28;20057;-79
2023/09/06 06:05:09;;;;;;;2.72;2.10;;;;;;;;;;4995082;28;20437;-79
2023/09/06 06:07:34;;;;;;;5.18;2.03;;;;;;;;;;4996365;28;20052;-79
2023/09/06 06:09:59;;;;;;;8.88;2.28;;;;;;;;;;4996758;28;20470;-79
2023/09/06 06:12:25;;;;;;;4.57;2.55;;;;;;;;;;4994834;28;20097;-79
2023/09/06 06:14:51;;;;;;;6.10;2.42;;;;;;;;;;4995455;28;20035;-79
2023/09/06 06:17:17;;;;;;;7.13;2.75;;;;;;;;;;4995918;28;20481;-79
2023/09/06 06:19:43;;;;;;;3.47;2.10;;;;;;;;;;4995053;28;20435;-79
2023/09/06 06:22:09;;;;;;;5.50;2.22;;;;;;;;;;4995073;28;20058;-79
2023/09/06 06:24:35;;;;;;;2.83;1.90;;;;;;;;;;4994064;28;20073;-79
2023/09/06 06:27:00;;;;;;;7.55;3.20;;;;;;;;;;4995767;28;20034;-79
2023/09/06 06:29:26;;;;;;;4.70;2.40;;;;;;;;;;4978614;28;20035;-79
2023/09/06 06:31:52;;;;;;;2.90;2.30;;;;;;;;;;4996717;28;20536;-79
2023/09/06 06:34:18;;;;;;;4.03;2.40;;;;;;;;;;4995674;28;20037;-79
2023/09/06 06:36:47;;;;;;;5.57;2.35;;;;;;;;;;4978363;28;20389;-79
2023/09/06 06:39:13;;;;;;;3.47;2.03;;;;;;;;;;4994623;28;20037;-79
2023/09/06 06:41:39;;;;;;;5.65;2.50;;;;;;;;;;4994639;28;20559;-79
2023/09/06 06:44:05;;;;;;;4.40;2.30;;;;;;;;;;4978247;28;20031;-79
2023/09/06 06:46:33;;;;;;;3.85;2.33;;;;;;;;;;4995173;28;20117;-79
2023/09/06 06:48:59;;;;;;;5.03;2.67;;;;;;;;;;4980223;28;20334;-80
2023/09/06 06:51:31;;;;;;;3.15;1.88;;;;;;;;;;4997126;28;20037;-80
2023/09/06 06:53:57;;;;;;;2.67;1.90;;;;;;;;;;4994611;28;20053;-79
2023/09/06 06:56:23;;;;;;;3.50;2.50;;;;;;;;;;4994741;28;20054;-79
2023/09/06 06:58:48;;;;;;;3.28;2.17;;;;;;;;;;4994384;28;20085;-81
2023/09/06 07:01:14;;;;;;;3.47;2.10;;;;;;;;;;4994491;28;20397;-79
2023/09/06 07:03:40;;;;;;;2.42;1.92;;;;;;;;;;5005941;28;20112;-78
2023/09/06 07:06:06;;;;;;;3.70;2.05;;;;;;;;;;4995090;28;20037;-79
2023/09/06 07:08:32;;;;;;;2.65;1.92;;;;;;;;;;4977780;28;20034;-79
2023/09/06 07:10:59;;;;;;;2.03;1.75;;;;;;;;;;4995369;28;20034;-78
2023/09/06 07:13:25;;;;;;;5.53;2.05;;;;;;;;;;4995355;28;20473;-78
2023/09/06 07:15:50;;;;;;;2.58;2.05;;;;;;;;;;4993975;28;20036;-79
2023/09/06 07:18:16;;;;;;;3.05;2.00;;;;;;;;;;4978251;28;20061;-78
2023/09/06 07:20:42;;;;;;;2.83;2.10;;;;;;;;;;4995210;28;20374;-79
2023/09/06 07:23:07;;;;;;;2.45;1.90;;;;;;;;;;4995389;28;20080;-79
2023/09/06 07:25:33;;;;;;;2.10;1.90;;;;;;;;;;4993767;28;20510;-79
2023/09/06 07:27:59;;;;;;;5.22;2.10;;;;;;;;;;4994472;28;20049;-79
2023/09/06 07:30:25;;;;;;;3.28;1.88;;;;;;;;;;4994629;28;20160;-79
2023/09/06 07:32:50;;;;;;;3.45;1.85;;;;;;;;;;4995058;28;20465;-81
2023/09/06 07:35:16;;;;;;;1.80;1.70;;;;;;;;;;4993122;28;20089;-82
2023/09/06 07:37:43;;;;;;;3.83;2.05;;;;;;;;;;4994641;28;20109;-80
2023/09/06 07:40:09;;;;;;;4.72;2.20;;;;;;;;;;4994704;28;20061;-80
2023/09/06 07:42:39;;;;;;;2.15;1.85;;;;;;;;;;4993408;28;20064;-82
2023/09/06 07:45:06;;;;;;;3.05;2.00;;;;;;;;;;4993042;28;20439;-80
2023/09/06 07:47:32;;;;;;;9.43;3.53;;;;;;;;;;4993300;28;20037;-81
2023/09/06 07:49:57;;;;;;;7.35;3.13;;;;;;;;;;4992866;28;20034;-81
2023/09/06 07:52:23;;;;;;;13.70;2.85;;;;;;;;;;4993145;28;20033;-81
2023/09/06 07:54:48;;;;;;;5.30;2.40;;;;;;;;;;4993949;28;20120;-79
2023/09/06 07:57:13;;;;;;;4.88;2.75;;;;;;;;;;4993247;28;20030;-81
2023/09/06 07:59:39;;;;;;;5.20;2.90;;;;;;;;;;4992586;28;20096;-82
2023/09/06 08:02:06;;;;;;;6.07;2.70;;;;;;;;;;4994426;28;20077;-82
2023/09/06 08:04:31;;;;;;;7.53;2.58;;;;;;;;;;4993809;28;20026;-82
2023/09/06 08:06:57;;;;;;;5.50;2.60;;;;;;;;;;4992782;28;20042;-82
2023/09/06 08:09:23;;;;;;;4.28;1.95;;;;;;;;;;4976462;28;20125;-82
2023/09/06 08:11:49;;;;;;;5.40;2.10;;;;;;;;;;4992847;28;20034;-81
2023/09/06 08:14:14;;;;;;;4.78;2.30;;;;;;;;;;4992962;28;20026;-81
2023/09/06 08:16:39;;;;;;;2.10;1.88;;;;;;;;;;4993001;28;20027;-81
2023/09/06 08:19:05;;;;;;;3.08;1.85;;;;;;;;;;4991973;28;20037;-82
2023/09/06 08:21:30;;;;;;;5.88;2.10;;;;;;;;;;4992651;28;20034;-82
2023/09/06 08:23:57;;;;;;;7.47;2.00;;;;;;;;;;4992722;28;20427;-81
